TOP > 外国特許検索

外国特許検索

Display results per page Option
Patent state
Country

Clear

Hits 4690 results

No. Application number
Gazette No
Country
Title
Release Date
Update Date
Information Provider
1201 2010JP054049 WO 2010/104130 世界知的所有権機関(WIPO) SPHERICAL ULTRASOUND MOTOR AND CONTROL METHOD FOR A SPHERICAL ULTRASOUND MOTOR 2012/02/07 2012/03/01 東京農工大学
1202 2010JP063284 WO 2011/036955 世界知的所有権機関(WIPO) CATALYST FOR HYDROLYSIS OF CELLULOSE OR HEMICELLULOSE, AND PROCESS FOR PRODUCTION OF SUGAR-CONTAINING SOLUTION USING THE CATALYST 2012/02/07 2012/03/01 北海道大学
1203 2009JP006733 WO 2010/067599 世界知的所有権機関(WIPO) PROCESS FOR EFFICIENTLY PRODUCING ALKYLATED CATECHIN 2012/02/07 2012/03/01 静岡県立大学
1204 2010JP058563 WO 2010/134580 世界知的所有権機関(WIPO) METHOD FOR PRODUCING AROMATIC FLUORINE COMPOUND AND NOVEL COMPOUND 2012/02/07 2012/03/01 静岡県立大学
1205 2011JP000059 WO 2011/086884 世界知的所有権機関(WIPO) METHOD AND PROGRAM FOR GENERATING TEST PATTERN FOR SEMICONDUCTOR INTEGRATED CIRCUIT, AND COMPUTER-READABLE STORAGE MEDIUM 新技術説明会 2012/02/09 2012/03/01 奈良先端科学技術大学院大学
1206 2009JP068929 WO 2010/073825 世界知的所有権機関(WIPO) ANTIBACTERIAL COMPOSITION AND ANTIVIRAL COMPOSITION EACH CONTAINING SILICON-CONTAINING COMPOUND, ANTIBACTERIALIZING METHOD, CLEANING/MOUTH CLEANING METHOD, AND METHOD FOR IMMOBILIZING ANTIBACTERIAL AGENT OR ANTIVIRAL AGENT 2012/02/14 2012/03/01 広島大学
1207 2010JP002149 WO 2010/109889 世界知的所有権機関(WIPO) SODIUM ION SECONDARY BATTERY 新技術説明会 2012/02/14 2012/03/01 東京理科大学
1208 2010JP069950 WO 2011/058975 世界知的所有権機関(WIPO) AGENT FOR AMELIORATING POSTPRANDIAL HYPERGLYCEMIA, AND PYRROLIDINE IMINOSUGAR OR SALT THEREOF 2012/02/15 2012/03/01 富山大学
1209 2011JP067583 WO 2012/015059 世界知的所有権機関(WIPO) OTHER VIEWPOINT CLOSED SURFACE IMAGE PIXEL VALUE CORRECTION DEVICE, METHOD OF CORRECTING OTHER VIEWPOINT CLOSED SURFACE IMAGE PIXEL VALUE, USER POSITION INFORMATION OUTPUT DEVICE, METHOD OF OUTPUTTING USER POSITION INFORMATION 2012/02/20 2012/03/01 芝浦工業大学
1210 2011JP056835 WO 2011118582 世界知的所有権機関(WIPO) METHOD FOR DECOMPOSING ALGINIC ACID 新技術説明会 2012/02/24 2019/04/24 北海道大学
1211 2010JP067614 WO 2011/046057 世界知的所有権機関(WIPO) NOVEL SUGAR CHAIN COMPOUND CONTAINING SIALYLLACTOSAMINE-TYPE OR SIALYL LEWIS X-TYPE SIALIC ACID AND FUCOSE 新技術説明会 2012/02/24 2012/03/01 産総研
1212 2010JP054009 WO 2010/104114 世界知的所有権機関(WIPO) METHOD FOR PREPARING POLYPEPTIDE LIBRARY 新技術説明会 2012/02/24 2012/03/01 産総研
1213 2011JP068585 WO 2012/029539 世界知的所有権機関(WIPO) METHOD OF SCREENING FOR PLANT DEFENSE ACTIVATORS, PLANT DEFENSE ACTIVATORS, AND METHOD OF ENHANCING IMMUNE RESPONSE 2012/02/24 2012/03/16 東京理科大学
1214 2010JP068868 WO 2011/052545 世界知的所有権機関(WIPO) METHOD FOR PRODUCING ANTIGEN-SPECIFIC B CELL POPULATION 2012/02/28 2012/03/01 東京理科大学
1215 2011JP005315 WO 2012/039135 世界知的所有権機関(WIPO) METHOD FOR PRODUCING 2-BORONATED AZULENE DERIVATIVE 新技術説明会 実績あり 2012/03/01 2012/04/05 山口TLO
1216 2010JP062905 WO 2011/013802 世界知的所有権機関(WIPO) NONDESTRUCTIVE TESTING METHOD AND DEVICE 2012/03/01 2012/04/04 九州大学
1217 2011JP057486 WO 2011/155248 世界知的所有権機関(WIPO) ENGINE 新技術説明会 2012/03/01 2012/04/05 早稲田大学
1218 2011JP053946 WO 2011/148683 世界知的所有権機関(WIPO) PHOTOCATALYST COMPOSITION AND METHOD FOR PRODUCING A PHOTOCATALYST COMPOSITION 新技術説明会 2012/03/01 2012/04/05 山梨大学
1219 2011JP054602 WO 2011/108530 世界知的所有権機関(WIPO) PARTICLE COATED WITH CARBON NANOTUBES, AND METHOD FOR PRODUCING SAME 2012/03/06 2012/04/04 九州大学
1220 2011JP056844 WO 2011/118587 世界知的所有権機関(WIPO) TEMPERATURE-, PH- OR SALT CONCENTRATION-SENSITIVE SEPARATION MATERIAL AND USE THEREOF 2012/03/06 2012/04/04 九州大学
1221 2011JP060887 WO 2011/142398 世界知的所有権機関(WIPO) FORCEPS SUPPORTING DEVICE 2012/03/06 2012/04/04 九州大学
1222 2010JP060503 WO 2011004697 世界知的所有権機関(WIPO) VACCINE FOR CRUSTACEAN ACUTE VIRAEMIA 2012/03/06 2019/04/22 宮崎大学
1223 2007JP001210 WO 2008/056444 世界知的所有権機関(WIPO) DUST MEASURING METHOD AND DUST MEASURING DEVICE 2012/03/08 2012/04/05 山口TLO
1224 2006JP301363 WO 2006/080463 世界知的所有権機関(WIPO) THERAPEUTIC AGENT FOR CANCER AND RECURRENCE PREVENTIVE EACH CONTAINING VITAMIN K HYDROQUINONE DERIVATIVE 2012/03/08 2012/04/05 福岡大学
1225 2010JP071659 WO 2011/068192 世界知的所有権機関(WIPO) ACOUSTIC CONVERSION DEVICE 2012/03/09 2012/04/04 科学技術振興機構(JST)
1226 2010JP072504 WO 2011/074587 世界知的所有権機関(WIPO) MAGNETIC CERAMIC AND PROCESS FOR PRODUCTION THEREOF 2012/03/15 2012/04/05 岡山大学
1227 2012JP051471 WO 2012/102278 世界知的所有権機関(WIPO) SOUND-ABSORBING BODY AND SOUND INSULATION WALL EQUIPPED WITH SAME 新技術説明会 実績あり 2012/03/15 2012/08/28 関西大学
1228 2012JP052739 WO 2012/108428 世界知的所有権機関(WIPO) PASTE FOR FORMING BONE SUBSTITUTE POROUS BODY, AND METHOD FOR PRODUCING SAME 2012/03/15 2012/08/28 関西大学
1229 2011JP063574 WO 2011/158823 世界知的所有権機関(WIPO) VIBRATION DAMPENING DEVICE 2012/03/21 2012/04/04 熊本大学
1230 2011JP006057 WO 2012/086114 世界知的所有権機関(WIPO) MACROLIDE COMPOUND HAVING ANTICANCER EFFECT 2012/03/21 2012/07/25 東北大学
1231 2011JP077762 WO 2012/074040 世界知的所有権機関(WIPO) BUGUANIDE DERIVATIVE COMPOUND 2012/03/21 2012/06/27 日大NUBIC
1232 2009JP068734 WO 2010/050604 世界知的所有権機関(WIPO) THREE-DIMENSIONAL OBJECT MANUFACTURED BY STEREOLITHOGRAPHY AND TO WHICH CYTOCOMPATIBILITY PROCESS IS APPLIED 2012/03/22 2012/04/04 科学技術振興機構(JST)
1233 2011JP051325 WO 2011/093274 世界知的所有権機関(WIPO) SUBSTRATE WITH TRANSPARENT CONDUCTIVE MULTILAYER STRUCTURE AND PROCESS FOR PRODUCING SAME 2012/03/22 2012/04/05 東北大学
1234 2011JP052411 WO 2011/096532 世界知的所有権機関(WIPO) SOLID ELECTROLYTE AND ELECTROCHEMICAL ELEMENT 2012/03/22 2012/04/05 秋田大学
1235 2011JP060488 WO 2011/136378 世界知的所有権機関(WIPO) GRAFTING MATERIAL FOR GENETIC AND CELL THERAPY 新技術説明会 実績あり 2012/03/23 2012/04/05 京都府立医科大学
1236 2012JP051205 WO 2012/099243 世界知的所有権機関(WIPO) GENE CAPABLE OF REGULATING OBESITY/INSULIN SENSITIVITY 2012/03/23 2012/08/28 京都府立医科大学
1237 2011JP054635 WO 2011/108543 世界知的所有権機関(WIPO) POTENTIAL OBTAINING DEVICE, MAGNETIC FIELD MICROSCOPE, INSPECTION DEVICE AND METHOD OF OBTAINING POTENTIAL 2012/03/26 2012/04/05 神戸大学
1238 2011JP052459 WO 2011/118267 世界知的所有権機関(WIPO) METHOD FOR IDENTIFYING NATURE OF CAROTID PLAQUE AND EVALUATION DEVICE 実績あり 2012/03/26 2012/04/05 徳島大学
1239 2011JP058445 WO 2011/125947 世界知的所有権機関(WIPO) INSERTION NEEDLE 2012/03/26 2012/04/05 宮崎大学
1240 2009JP071187 WO 2011/074125 世界知的所有権機関(WIPO) GRAPHENE OXIDE SHEET, ARTICLE CONTAINING GRAPHEME-CONTAINING SUBSTANCE PRODUCED BY REDUCING THE GRAPHENE OXIDE SHEET, AND PROCESS FOR PRODUCTION OF THE GRAPHENE OXIDE SHEET 2012/03/26 2012/04/05 北海道大学
1241 2010JP007231 WO 2011/074237 世界知的所有権機関(WIPO) SIC SEMICONDUCTOR ELEMENT AND MANUFACTURING METHOD FOR SAME 新技術説明会 2012/03/26 2012/04/05 奈良先端科学技術大学院大学
1242 2010JP067393 WO 2011/043309 世界知的所有権機関(WIPO) OPTICAL BODY 2012/03/26 2012/04/05 豊橋技術科学大学(とよはしTLO)
1243 2010JP068761 WO 2011/092909 世界知的所有権機関(WIPO) METAL MEMBER MANUFACTURING METHOD, AND METAL MEMBER 新技術説明会 2012/03/26 2012/04/05 東北大学
1244 2010JP070809 WO 2011/070908 世界知的所有権機関(WIPO) METAL ELECTROWINNING SYSTEM, AND ELECTROWINING METHOD USING THE SYSTEM 実績あり 2012/03/26 2012/04/05 同志社大学
1245 2010JP072817 WO 2011/078095 世界知的所有権機関(WIPO) TRANSMISSION CIRCUIT 2012/03/26 2012/04/05 電気通信大学
1246 2010JP072916 WO 2011/078126 世界知的所有権機関(WIPO) TN LIQUID CRYSTAL ELEMENT, AND METHOD FOR PRODUCING SAME 新技術説明会 2012/03/26 2012/04/05 東京理科大学
1247 2010JP073176 WO 2011/081070 世界知的所有権機関(WIPO) THREE DIMENSIONAL COORDINATE LOCATION DEVICE, METHOD FOR SAME, AND PROGRAM 2012/03/26 2012/04/05 福岡大学
1248 2009JP054930 WO 2010/103661 世界知的所有権機関(WIPO) BODY TISSUE IMAGING USING RAMAN SCATTERING LIGHT 新技術説明会 2012/03/27 2012/04/05 京都府立医科大学
1249 2011JP054548 WO 2011/105609 世界知的所有権機関(WIPO) METALLIC MATERIAL WHICH IS SOLID SOLUTION OF BODY-CENTERED CUBIC (BCC) STRUCTURE HAVING CONTROLLED CRYSTAL AXIS <001> ORIENTATION, AND PROCESS FOR PRODUCING SAME 2012/03/27 2012/04/05 横浜国立大学
1250 2010JP073841 WO 2011081212 世界知的所有権機関(WIPO) EXTERNAL RESONATOR LASER 2012/03/27 2019/04/22 千葉大学
1251 2011JP000245 WO 2011/089892 世界知的所有権機関(WIPO) METHOD FOR BONDING HARDENED SILICONE RESIN, METHOD FOR JOINING SUBSTRATE HAVING FINE STRUCTURE, AND METHOD FOR MANUFACTURING MICRO FLUID DEVICE USING THE METHOD FOR JOINING. 新技術説明会 2012/03/27 2012/04/05 東京工業大学
1252 2011JP050490 WO 2011/083870 世界知的所有権機関(WIPO) MOUSE ARTIFICIAL CHROMOSOME VECTOR 新技術説明会 実績あり 2012/03/27 2012/04/05 鳥取大学
1253 2011JP050647 WO 2011/089995 世界知的所有権機関(WIPO) HYDROXAMIC ACID DERIVATIVE AND HDAC8 INHIBITOR USING SAME 新技術説明会 2012/03/27 2012/04/05 名古屋市立大学
1254 2011JP050880 WO 2011/090078 世界知的所有権機関(WIPO) RESIN COMPOSITION FOR MEDICAL USE, MANUFACTURING METHOD THEREOF, AND MEDICAL KIT 新技術説明会 2012/03/27 2012/04/05 岡山大学
1255 2011JP051237 WO 2011/090199 世界知的所有権機関(WIPO) BRAIN SIGNAL MEASUREMENT SYSTEM, IN VIVO MEASUREMENT DEVICE, AND BRAIN SIGNAL MEASUREMENT POSITION CONTROL METHOD 2012/03/27 2012/04/04 九州工業大学
1256 2011JP051636 WO 2011093393 世界知的所有権機関(WIPO) METHOD FOR ASSESSMENT OF POTENTIAL FOR DEVELOPMENT OF DRAVET SYNDROME AND USE THEREOF 2012/03/27 2019/04/24 岡山大学
1257 2011JP051944 WO 2011/096367 世界知的所有権機関(WIPO) MOBILE FLOOR REACTION FORCE MEASURING DEVICE 2012/03/27 2012/04/05 同志社大学
1258 2011JP052710 WO 2011/099502 世界知的所有権機関(WIPO) USE OF COMPOUND BINDING TO MSIN3B THAT SPECIFICALLY BINDS TO NEURON RESTRICTIVE SILENCER FACTOR (NRSF) 2012/03/27 2012/04/05 横浜市立大学
1259 2011JP053497 WO 2011/102461 世界知的所有権機関(WIPO) PROTEIN EXPRESSED SPECIFICALLY IN OVARIAN CLEAR CELL ADENOCARCINOMA AND USE APPLICATIONS THEREOF 2012/03/27 2012/04/05 横浜市立大学
1260 2010JP051306 WO 2010/084999 世界知的所有権機関(WIPO) IMMUNOSUPPRESSIVE AGENTS AND PROPHYLACTIC AND THERAPEUTIC AGENTS FOR AUTOIMMUNE DISEASES 2012/03/27 2012/07/25 岡山大学
1261 2011JP069215 WO 2012/026543 世界知的所有権機関(WIPO) MRE VIBRATION DEVICE, VIBRATION SYSTEM, AND VIBRATION METHOD 2012/03/28 2012/04/05 北海道大学
1262 2010JP053342 WO 2010/101147 世界知的所有権機関(WIPO) HYDROGEL FORMING AGENT 新技術説明会 2012/03/29 2012/04/05 静岡大学
1263 2010JP055450 WO 2010/110452 世界知的所有権機関(WIPO) FLUORESCENT THIN FILM, METHOD FOR MANUFACTURING FLUORESCENT THIN FILM, FINE LIGHT SOURCE EXCITATION APPARATUS, AND OPTICAL MICROSCOPE 2012/03/29 2012/04/05 静岡大学
1264 2010JP059620 WO 2010/143606 世界知的所有権機関(WIPO) NOVEL SITE-SPECIFIC RECOMBINATION ENZYME AND SITE-SPECIFIC RECOMBINATION METHOD USING SEQUENCE CAPABLE OF RECOGNIZING THE ENZYME 2012/03/29 2012/04/04 かずさDNA研究所
1265 2004JP006662 WO 2004/100831 世界知的所有権機関(WIPO) METHOD OF REMOVING CELL 2012/04/03 2012/04/05 早稲田大学
1266 2011JP078506 WO 2012077774 世界知的所有権機関(WIPO) DEVICE FOR PROPHYLAXIS AND TREATMENT OF SYSTEMIC LUPUS ERYTHEMATOSUS 2012/04/03 2019/04/19 札幌医科大学
1267 2011JP078036 WO 2012/081433 世界知的所有権機関(WIPO) BIOMARKER FOR AMYLOID-.BETA.-RELATED NEUROLOGICAL DISORDERS 2012/04/03 2018/10/30 札幌医科大学
1268 2012JP054408 WO 2012/115185 世界知的所有権機関(WIPO) COMPOSITION FOR TREATMENT, AMELIORATION OR PROPHYLAXIS OF PAIN 2012/04/03 2018/10/30 札幌医科大学
1269 2011JP055688 WO 2011111790 世界知的所有権機関(WIPO) PRODUCTION OF ENTERITIS EVOKING CAUSAL FACTOR BY HIGHLY PATHOGENIC ORAL BACTERIA AND HIGH SENSITIVITY DETECTION METHOD THEREFOR 新技術説明会 2012/04/04 2019/04/22 浜松医科大学
1270 2010JP072050 WO 2011/071088 世界知的所有権機関(WIPO) METHOD FOR PRODUCING SUPEROXIDE, METHOD FOR EVALUATING SUPEROXIDE SCAVENGING ABILITY, DEVICE FOR PRODUCING SUPEROXIDE, AND DEVICE FOR EVALUATING SUPEROXIDE SCAVENGING ABILITY 2012/04/05 2018/10/30 札幌医科大学
1271 2011JP070894 WO 2012/036168 世界知的所有権機関(WIPO) COMPOSITION FOR TREATING MUSCULAR DYSTROPHY 2012/04/05 2018/10/30 札幌医科大学
1272 2012JP002129 WO 2013/144999 世界知的所有権機関(WIPO) NEURONAL CULTURE MEDIUM AND METHOD FOR PRODUCING IN VIVO-LIKE AND ENHANCED SYNAPTOGENESIS NEURON MODEL 2012/04/09 2013/10/16 沖縄科学技術大学院大学学園(OIST)
1273 2012JP051720 WO 2012/102356 世界知的所有権機関(WIPO) CAPSULE-TYPE COMPOUND, ANION-REMOVING AGENT, AND ANION REMOVAL METHOD 新技術説明会 2012/04/09 2012/08/28 静岡大学
1274 2011JP077782 WO 2012/074043 世界知的所有権機関(WIPO) THERAPEUTIC AGENT FOR TRAUMATIC NEUROLOGICAL DISORDERS 2012/04/09 2012/06/27 岡山大学
1275 2012JP056015 WO 2012/121350 世界知的所有権機関(WIPO) PROCESS FOR PRODUCING ESTER DERIVED FROM BULKY HYDROXY-GROUP-CONTAINING COMPOUND 新技術説明会 2012/04/10 2012/09/25 四国TLO
1276 2010JP071131 WO 2011/065483 世界知的所有権機関(WIPO) ELECTROLYTE MEMBRANE, FUEL CELL, AND METHOD FOR MANUFACTURING AN ELECTROLYTE MEMBRANE 新技術説明会 2012/04/11 2012/04/26 豊橋技術科学大学(とよはしTLO)
1277 2011JP064846 WO 2012/008301 世界知的所有権機関(WIPO) METHOD FOR PRODUCING NOVEL HIPSC BY MEANS OF SIRNA INTRODUCTION 新技術説明会 2012/04/11 2012/04/26 鳥取大学
1278 2011JP064847 WO 2012/008302 世界知的所有権機関(WIPO) METHOD FOR PREPARING NOVEL HIPSC BY MEANS OF MIRNA INTRODUCTION 新技術説明会 2012/04/11 2012/04/26 鳥取大学
1279 2006JP306338 WO 2006/112239 世界知的所有権機関(WIPO) hTERT GENE EXPRESSION REGULATORY GENE 新技術説明会 2012/04/11 2012/04/26 鳥取大学
1280 2011JP060515 WO 2011/138937 世界知的所有権機関(WIPO) POLYACRYLONITRILE POROUS BODY 新技術説明会 2012/04/12 2012/04/26 大阪大学
1281 2011JP063249 WO 2012/002126 世界知的所有権機関(WIPO) ANGLE DETECTION DEVICE 2012/04/16 2012/04/26 九州大学
1282 2011JP064349 WO 2011/162320 世界知的所有権機関(WIPO) COMBINATION OF EGCG OR METHYLATED EGCG AND A PDE INHIBITOR 2012/04/16 2012/04/26 九州大学
1283 2011JP005907 WO 2012/060068 世界知的所有権機関(WIPO) CURABLE URETHANE COMPOSITION, CURED PRODUCT THEREOF, KIT AND CURRED PRODUCT PRODUCTION METHOD 2012/04/17 2012/05/31 三重大学
1284 2011JP003412 WO 2011/158503 世界知的所有権機関(WIPO) METHOD FOR MEASUREMENT OF VIBRATION PROPERTY OF STRUCTURE, AND VIBRATION PROPERTY MEASUREMENT DEVICE 新技術説明会 2012/04/18 2012/04/26 芝浦工業大学
1285 2011JP074098 WO 2012/056976 世界知的所有権機関(WIPO) MODULATOR OF ACTIVITY OF ADENYLATE CYCLASE 2012/04/18 2012/05/31 横浜市立大学
1286 2010JP053759 WO 2010/122846 世界知的所有権機関(WIPO) COCKTAIL ANTIBODY FOR DETERMINING HISTOLOGICAL TYPE OF CARCINOMA, DETERMINATION KIT AND DETERMINATION METHOD 2012/04/23 2012/04/26 富山大学
1287 2011JP067955 WO 2012/020707 世界知的所有権機関(WIPO) THREE-DIMENSIONAL GUIDE FOR WIRE FOR PREPARING PEDICLE SCREW INSERTION HOLE 2012/04/23 2012/04/26 富山大学
1288 2012JP001342 WO 2012/147255 世界知的所有権機関(WIPO) WATER-ABSORBING AND LIQUID-ABSORBING POLYMER 新技術説明会 2012/04/23 2012/11/07 苫小牧工業高等専門学校
1289 2008JP054513 WO 2008/111614 世界知的所有権機関(WIPO) FUSE LINK AND FUSE 2012/04/27 2012/05/31 埼玉大学
1290 2008JP053735 WO 2009/028221 世界知的所有権機関(WIPO) QUANTITATIVE MOTOR FUNCTION EVALUATION SYSTEM 2012/04/27 2012/05/31 東京都医学総合研究所
1291 2010JP071127 WO 2011/065480 世界知的所有権機関(WIPO) NERVE CELL DEATH INHIBITOR 2012/05/01 2012/05/31 お茶の水女子大学
1292 2009JP000942 WO 2009/107403 世界知的所有権機関(WIPO) OPTICAL SWITCH ELEMENT AND OPTICAL SWITCH 2012/05/07 2012/05/31 タマティーエルオー
1293 2009JP002226 WO 2009/142012 世界知的所有権機関(WIPO) OPTICAL SWITCH ELEMENT AND OPTICAL SWITCH 2012/05/07 2012/05/31 タマティーエルオー
1294 2009JP057145 WO 2009/125773 世界知的所有権機関(WIPO) ELECTROMECHANICAL TRANSDUCER, ELECTROMECHANICAL TRANSDUCER DEVICE, AND FABRICATION METHOD FOR SAME 新技術説明会 2012/05/07 2012/05/31 埼玉大学
1295 2011JP053818 WO 2011/102528 世界知的所有権機関(WIPO) MOBILE ROBOT 2012/05/07 2012/05/31 日大NUBIC
1296 2011JP055947 WO 2011/115062 世界知的所有権機関(WIPO) ADJUVANT HAVING ANTI-TUMOR EFFECT 2012/05/07 2012/05/31 岡山大学
1297 2011JP058366 WO 2011/125917 世界知的所有権機関(WIPO) METHOD FOR GENERATING DATA SET FOR INTEGRATED PROTEOMICS, INTEGRATED PROTEOMICS METHOD USING DATA SET FOR INTEGRATED PROTEOMICS THAT IS GENERATED BY THE GENERATION METHOD, AND METHOD FOR IDENTIFYING CAUSATIVE SUBSTANCE USING SAME 新技術説明会 2012/05/07 2012/05/31 熊本大学
1298 2011JP001781 WO 2011/118231 世界知的所有権機関(WIPO) RAPID METHOD FOR IDENTIFYING DRUG-RESISTANT GENE USING ARTIFICIAL CHROMOSOME OF MALARIA PARASITE, AND METHOD FOR PREPARING RECOMBINANT MALARIA PARASITE 2012/05/07 2012/05/31 三重大学
1299 2011JP000663 WO 2011/099263 世界知的所有権機関(WIPO) HIGH-EXPRESSION PROMOTER DERIVED FROM KLUYVEROMYCES MARXIANUS 2012/05/07 2012/05/31 山口大学
1300 2011JP057420 WO 2011/118800 世界知的所有権機関(WIPO) POROUS STRUCTURE PROVIDED WITH PATTERN THAT IS COMPOSED OF CONDUCTIVE POLYMER, AND METHOD FOR PRODUCING SAME 2012/05/07 2012/05/31 東北大学

PAGE TOP